createdAt,value
2023-04-15T00:00:29.990Z,99459.78
2023-04-15T00:03:34.732Z,99449.47
2023-04-15T00:06:37.531Z,99456.19
2023-04-15T00:09:41.474Z,99456.06
2023-04-15T00:12:43.907Z,99448.41
2023-04-15T00:15:47.395Z,99451.06
2023-04-15T00:18:49.761Z,99457.03
2023-04-15T00:21:52.492Z,99463.78
2023-04-15T00:24:54.820Z,99460.69
2023-04-15T00:27:57.631Z,99464.31
2023-04-15T00:31:00.017Z,99459.87
2023-04-15T00:34:02.626Z,99461.66
2023-04-15T00:37:04.984Z,99459.16
2023-04-15T00:40:11.739Z,99446.41
2023-04-15T00:43:14.671Z,99448.84
2023-04-15T00:46:17.723Z,99459.25
2023-04-15T00:49:20.289Z,99452.47
2023-04-15T00:52:22.943Z,99448.31
2023-04-15T00:55:26.802Z,99449.84
2023-04-15T00:58:29.419Z,99438.72
2023-04-15T01:01:31.943Z,99441.09
2023-04-15T01:04:34.660Z,99442.84
2023-04-15T01:07:37.593Z,99448.25
2023-04-15T01:10:40.391Z,99438.38
2023-04-15T01:13:42.696Z,99434.03
2023-04-15T01:16:45.924Z,99434.88
2023-04-15T01:19:48.795Z,99434.16
2023-04-15T01:22:51.514Z,99438.47
2023-04-15T01:25:54.418Z,99437.31
2023-04-15T01:28:58.158Z,99433.09
2023-04-15T01:32:01.000Z,99432.50
2023-04-15T01:35:03.707Z,99439.78
2023-04-15T01:38:07.519Z,99441.41
2023-04-15T01:41:10.143Z,99436.97
2023-04-15T01:44:12.583Z,99440.84
2023-04-15T01:47:15.723Z,99442.59
2023-04-15T01:50:18.185Z,99445.03
2023-04-15T01:53:21.420Z,99445.25
2023-04-15T01:56:26.741Z,99442.41
2023-04-15T01:59:31.344Z,99446.84
2023-04-15T02:02:34.771Z,99443.16
2023-04-15T02:05:37.410Z,99451.66
2023-04-15T02:08:39.779Z,99444.78
2023-04-15T02:11:43.171Z,99455.38
2023-04-15T02:14:45.807Z,99445.47
2023-04-15T02:17:51.076Z,99450.53
2023-04-15T02:20:53.556Z,99443.63
2023-04-15T02:23:56.371Z,99442.63
2023-04-15T02:26:58.628Z,99446.06
2023-04-15T02:30:01.955Z,99443.56
2023-04-15T02:33:05.114Z,99439.41
2023-04-15T02:36:08.399Z,99442.97
2023-04-15T02:39:11.310Z,99454.97
2023-04-15T02:42:14.407Z,99467.66
2023-04-15T02:45:19.274Z,99453.09
2023-04-15T02:48:22.150Z,99460.06
2023-04-15T02:51:24.883Z,99455.94
2023-04-15T02:54:30.411Z,99457.53
2023-04-15T02:57:33.389Z,99457.34
2023-04-15T03:00:36.491Z,99454.91
2023-04-15T03:03:38.988Z,99456.69
2023-04-15T03:06:46.325Z,99453.91
2023-04-15T03:09:48.837Z,99451.94
2023-04-15T03:12:51.682Z,99447.94
2023-04-15T03:15:54.576Z,99449.44
2023-04-15T03:18:58.423Z,99441.69
2023-04-15T03:22:00.997Z,99440.84
2023-04-15T03:25:03.925Z,99439.09
2023-04-15T03:28:08.184Z,99445.91
2023-04-15T03:31:10.972Z,99442.44
2023-04-15T03:34:13.381Z,99436.34
2023-04-15T03:37:16.124Z,99438.16
2023-04-15T03:40:18.499Z,99442.13
2023-04-15T03:43:21.307Z,99447.31
2023-04-15T03:46:23.885Z,99452.41
2023-04-15T03:49:26.782Z,99456.06
2023-04-15T03:52:29.185Z,99461.97
2023-04-15T03:55:31.713Z,99450.06
2023-04-15T03:58:34.078Z,99446.81
2023-04-15T04:01:36.873Z,99451.66
2023-04-15T04:04:39.898Z,99443.75
2023-04-15T04:07:42.132Z,99449.00
2023-04-15T04:10:45.456Z,99445.63
2023-04-15T04:13:47.890Z,99434.56
2023-04-15T04:16:50.914Z,99444.13
2023-04-15T04:19:53.269Z,99439.84
2023-04-15T04:22:56.062Z,99439.81
2023-04-15T04:25:58.300Z,99441.69
2023-04-15T04:29:01.389Z,99431.00
2023-04-15T04:32:04.148Z,99445.31
2023-04-15T04:35:07.192Z,99436.72
2023-04-15T04:38:09.531Z,99435.53
2023-04-15T04:41:12.269Z,99438.63
2023-04-15T04:44:14.540Z,99438.38
2023-04-15T04:47:17.213Z,99443.28
2023-04-15T04:50:19.455Z,99441.12
2023-04-15T04:53:22.179Z,99441.75
2023-04-15T04:56:24.471Z,99442.19
2023-04-15T04:59:27.050Z,99435.94
2023-04-15T05:02:29.432Z,99448.78
2023-04-15T05:05:32.103Z,99445.66
2023-04-15T05:08:34.547Z,99440.09
2023-04-15T05:11:37.261Z,99442.06
2023-04-15T05:14:39.951Z,99447.44
2023-04-15T05:17:42.640Z,99446.81
2023-04-15T05:20:45.160Z,99448.72
2023-04-15T05:23:47.741Z,99443.00
2023-04-15T05:26:50.032Z,99443.28
2023-04-15T05:29:52.647Z,99446.63
2023-04-15T05:32:55.007Z,99450.75
2023-04-15T05:35:57.606Z,99451.38
2023-04-15T05:39:00.114Z,99447.13
2023-04-15T05:42:03.539Z,99450.50
2023-04-15T05:45:09.100Z,99457.09
2023-04-15T05:48:11.987Z,99447.28
2023-04-15T05:51:15.558Z,99447.34
2023-04-15T05:54:20.130Z,99457.69
2023-04-15T05:57:23.078Z,99463.97
2023-04-15T06:00:26.037Z,99460.00
2023-04-15T06:03:28.811Z,99468.69
2023-04-15T06:06:32.552Z,99469.84
2023-04-15T06:09:35.390Z,99471.94
2023-04-15T06:12:37.967Z,99470.44
2023-04-15T06:15:40.622Z,99480.44
2023-04-15T06:18:43.210Z,99485.03
2023-04-15T06:21:46.438Z,99478.38
2023-04-15T06:24:50.562Z,99490.03
2023-04-15T06:27:53.114Z,99501.09
2023-04-15T06:30:55.718Z,99497.50
2023-04-15T06:33:58.380Z,99496.84
2023-04-15T06:37:01.440Z,99499.84
2023-04-15T06:40:05.311Z,99500.34
2023-04-15T06:43:08.055Z,99502.06
2023-04-15T06:46:11.080Z,99503.69
2023-04-15T06:49:13.529Z,99512.03
2023-04-15T06:52:17.653Z,99509.91
2023-04-15T06:55:20.075Z,99505.78
2023-04-15T06:58:22.879Z,99507.41
2023-04-15T07:01:25.383Z,99507.88
2023-04-15T07:04:28.202Z,99513.31
2023-04-15T07:07:30.706Z,99508.91
2023-04-15T07:10:34.033Z,99505.41
2023-04-15T07:13:38.579Z,99512.87
2023-04-15T07:16:41.251Z,99505.06
2023-04-15T07:19:43.758Z,99510.56
2023-04-15T07:22:46.398Z,99503.81
2023-04-15T07:25:48.993Z,99508.09
2023-04-15T07:28:52.199Z,99508.84
2023-04-15T07:31:54.621Z,99509.78
2023-04-15T07:34:57.845Z,99504.63
2023-04-15T07:38:00.206Z,99510.03
2023-04-15T07:41:02.903Z,99514.81
2023-04-15T07:44:05.499Z,99513.25
2023-04-15T07:47:08.142Z,99514.38
2023-04-15T07:50:11.501Z,99511.75
2023-04-15T07:53:14.630Z,99513.13
2023-04-15T07:56:17.175Z,99510.00
2023-04-15T07:59:20.107Z,99503.78
2023-04-15T08:02:26.778Z,99512.47
2023-04-15T08:05:29.594Z,99503.53
2023-04-15T08:08:32.103Z,99507.56
2023-04-15T08:11:36.658Z,99505.13
2023-04-15T08:14:39.543Z,99506.41
2023-04-15T08:17:42.312Z,99511.78
2023-04-15T08:20:44.697Z,99512.22
2023-04-15T08:23:48.331Z,99516.41
2023-04-15T08:26:50.934Z,99519.00
2023-04-15T08:29:53.582Z,99519.56
2023-04-15T08:32:56.281Z,99520.03
2023-04-15T08:35:58.965Z,99521.31
2023-04-15T08:39:02.247Z,99524.62
2023-04-15T08:42:08.483Z,99523.09
2023-04-15T08:45:11.404Z,99522.59
2023-04-15T08:48:16.851Z,99521.25
2023-04-15T08:51:19.843Z,99530.09
2023-04-15T08:54:22.877Z,99533.38
2023-04-15T08:57:28.619Z,99535.47
2023-04-15T09:00:31.344Z,99533.19
2023-04-15T09:03:34.784Z,99534.91
2023-04-15T09:06:39.563Z,99531.75
2023-04-15T09:09:42.270Z,99531.62
2023-04-15T09:12:44.907Z,99538.97
2023-04-15T09:15:47.368Z,99532.50
2023-04-15T09:18:50.053Z,99540.16
2023-04-15T09:21:56.558Z,99533.22
2023-04-15T09:25:01.484Z,99533.12
2023-04-15T09:28:03.914Z,99533.09
2023-04-15T09:31:06.899Z,99532.78
2023-04-15T09:34:09.768Z,99532.09
2023-04-15T09:37:28.602Z,99533.03
2023-04-15T09:40:41.183Z,99529.84
2023-04-15T09:43:43.825Z,99530.03
2023-04-15T09:46:46.305Z,99536.41
2023-04-15T09:49:58.620Z,99530.50
2023-04-15T09:53:03.509Z,99529.09
2023-04-15T09:56:08.907Z,99527.38
2023-04-15T09:59:11.280Z,99534.44
2023-04-15T10:02:14.240Z,99534.63
2023-04-15T10:05:18.126Z,99532.84
2023-04-15T10:08:22.316Z,99534.56
2023-04-15T10:11:29.777Z,99526.97
2023-04-15T10:14:34.584Z,99538.56
2023-04-15T10:17:38.208Z,99549.09
2023-04-15T10:20:40.947Z,99537.00
2023-04-15T10:23:45.208Z,99536.72
2023-04-15T10:26:47.849Z,99545.88
2023-04-15T10:29:51.090Z,99540.94
2023-04-15T10:32:54.281Z,99542.38
2023-04-15T10:35:57.455Z,99554.16
2023-04-15T10:38:59.797Z,99544.00
2023-04-15T10:42:12.757Z,99549.50
2023-04-15T10:45:18.918Z,99548.38
2023-04-15T10:48:21.550Z,99559.28
2023-04-15T10:51:27.288Z,99556.59
2023-04-15T10:54:30.153Z,99557.16
2023-04-15T10:57:37.783Z,99558.53
2023-04-15T11:00:40.472Z,99559.41
2023-04-15T11:03:43.741Z,99560.41
2023-04-15T11:06:46.644Z,99562.03
2023-04-15T11:09:49.111Z,99575.94
2023-04-15T11:12:52.903Z,99574.53
2023-04-15T11:15:58.938Z,99575.28
2023-04-15T11:19:01.773Z,99576.66
2023-04-15T11:22:11.430Z,99577.66
2023-04-15T11:25:24.500Z,99580.66
2023-04-15T11:28:28.016Z,99586.44
2023-04-15T11:31:31.083Z,99579.88
2023-04-15T11:34:35.597Z,99572.06
2023-04-15T11:37:39.058Z,99576.72
2023-04-15T11:40:43.851Z,99575.91
2023-04-15T11:43:48.358Z,99570.06
2023-04-15T11:46:50.836Z,99572.06
2023-04-15T11:49:53.448Z,99572.19
2023-04-15T11:52:56.742Z,99581.50
2023-04-15T11:55:59.442Z,99581.69
2023-04-15T11:59:02.246Z,99583.69
2023-04-15T12:02:11.613Z,99583.88
2023-04-15T12:05:14.687Z,99585.28
2023-04-15T12:08:17.204Z,99586.47
2023-04-15T12:11:31.328Z,99586.69
2023-04-15T12:14:34.215Z,99585.44
2023-04-15T12:17:51.960Z,99587.59
2023-04-15T12:20:54.758Z,99583.22
2023-04-15T12:23:57.947Z,99593.75
2023-04-15T12:27:07.389Z,99585.94
2023-04-15T12:30:11.649Z,99576.16
2023-04-15T12:33:14.138Z,99590.41
2023-04-15T12:36:16.779Z,99584.78
2023-04-15T12:39:21.987Z,99599.06
2023-04-15T12:42:25.494Z,99593.41
2023-04-15T12:45:29.498Z,99593.25
2023-04-15T12:48:33.364Z,99604.00
2023-04-15T12:51:35.812Z,99602.72
2023-04-15T12:54:39.254Z,99599.78
2023-04-15T12:57:41.568Z,99610.50
2023-04-15T13:00:44.814Z,99612.22
2023-04-15T13:03:48.175Z,99618.03
2023-04-15T13:06:51.397Z,99621.25
2023-04-15T13:09:53.801Z,99614.56
2023-04-15T13:12:56.947Z,99616.19
2023-04-15T13:15:59.337Z,99610.94
2023-04-15T13:19:02.760Z,99615.25
2023-04-15T13:22:05.185Z,99619.37
2023-04-15T13:25:08.634Z,99617.50
2023-04-15T13:28:13.873Z,99615.31
2023-04-15T13:31:16.683Z,99615.84
2023-04-15T13:34:19.293Z,99624.88
2023-04-15T13:37:26.567Z,99625.53
2023-04-15T13:40:29.001Z,99624.34
2023-04-15T13:43:33.707Z,99628.41
2023-04-15T13:46:36.278Z,99627.28
2023-04-15T13:49:38.857Z,99634.91
2023-04-15T13:52:41.245Z,99629.59
2023-04-15T13:55:44.062Z,99632.16
2023-04-15T13:58:46.782Z,99627.78
2023-04-15T14:01:49.829Z,99634.84
2023-04-15T14:04:53.205Z,99635.66
2023-04-15T14:07:55.618Z,99635.53
2023-04-15T14:10:58.264Z,99644.72
2023-04-15T14:14:00.668Z,99650.75
2023-04-15T14:17:03.984Z,99655.63
2023-04-15T14:20:09.844Z,99647.22
2023-04-15T14:23:12.582Z,99642.69
2023-04-15T14:26:14.982Z,99645.03
2023-04-15T14:29:17.733Z,99659.34
2023-04-15T14:32:20.626Z,99665.56
2023-04-15T14:35:26.011Z,99656.84
2023-04-15T14:38:28.562Z,99663.41
2023-04-15T14:41:31.171Z,99659.41
2023-04-15T14:44:33.445Z,99666.63
2023-04-15T14:47:36.066Z,99664.03
2023-04-15T14:50:39.007Z,99665.72
2023-04-15T14:53:41.866Z,99672.94
2023-04-15T14:56:44.244Z,99672.13
2023-04-15T14:59:47.038Z,99669.28
2023-04-15T15:02:49.507Z,99669.69
2023-04-15T15:05:52.380Z,99677.62
2023-04-15T15:08:54.848Z,99672.94
2023-04-15T15:11:57.872Z,99680.75
2023-04-15T15:15:02.938Z,99673.66
2023-04-15T15:18:07.863Z,99684.00
2023-04-15T15:21:10.464Z,99687.97
2023-04-15T15:24:13.362Z,99687.87
2023-04-15T15:27:15.671Z,99692.00
2023-04-15T15:30:18.382Z,99693.25
2023-04-15T15:33:21.249Z,99694.59
2023-04-15T15:36:23.884Z,99700.41
2023-04-15T15:39:26.517Z,99706.47
2023-04-15T15:42:31.169Z,99707.53
2023-04-15T15:45:33.729Z,99708.47
2023-04-15T15:48:36.890Z,99716.03
2023-04-15T15:51:39.213Z,99723.16
2023-04-15T15:54:42.046Z,99722.88
2023-04-15T15:57:44.731Z,99726.00
2023-04-15T16:00:47.443Z,99735.69
2023-04-15T16:03:51.151Z,99737.44
2023-04-15T16:06:53.759Z,99735.66
2023-04-15T16:09:56.406Z,99736.88
2023-04-15T16:12:58.857Z,99743.59
2023-04-15T16:16:01.535Z,99744.66
2023-04-15T16:19:04.123Z,99746.34
2023-04-15T16:22:07.244Z,99752.34
2023-04-15T16:25:10.062Z,99754.72
2023-04-15T16:28:25.582Z,99756.75
2023-04-15T16:31:29.073Z,99750.97
2023-04-15T16:34:32.188Z,99755.84
2023-04-15T16:37:36.078Z,99759.66
2023-04-15T16:40:38.807Z,99767.16
2023-04-15T16:43:41.509Z,99756.87
2023-04-15T16:46:44.343Z,99759.41
2023-04-15T16:49:47.053Z,99768.78
2023-04-15T16:52:49.702Z,99770.44
2023-04-15T16:55:52.023Z,99773.91
2023-04-15T16:58:54.859Z,99782.75
2023-04-15T17:01:57.579Z,99781.97
2023-04-15T17:05:00.477Z,99791.66
2023-04-15T17:08:02.765Z,99796.06
2023-04-15T17:11:05.516Z,99804.72
2023-04-15T17:14:07.911Z,99811.75
2023-04-15T17:17:10.477Z,99816.31
2023-04-15T17:20:13.042Z,99813.25
2023-04-15T17:23:15.755Z,99812.00
2023-04-15T17:26:18.524Z,99817.69
2023-04-15T17:29:21.358Z,99824.94
2023-04-15T17:32:24.709Z,99827.91
2023-04-15T17:35:27.430Z,99839.34
2023-04-15T17:38:29.773Z,99841.34
2023-04-15T17:41:33.422Z,99839.59
2023-04-15T17:44:35.973Z,99845.28
2023-04-15T17:47:38.631Z,99842.97
2023-04-15T17:50:41.018Z,99843.19
2023-04-15T17:53:43.743Z,99850.34
2023-04-15T17:56:46.652Z,99858.50
2023-04-15T17:59:49.426Z,99854.44
2023-04-15T18:02:52.091Z,99863.37
2023-04-15T18:05:55.479Z,99868.72
2023-04-15T18:08:57.797Z,99869.78
2023-04-15T18:12:01.922Z,99866.75
2023-04-15T18:15:04.631Z,99870.38
2023-04-15T18:18:07.281Z,99873.41
2023-04-15T18:21:11.593Z,99879.69
2023-04-15T18:24:16.157Z,99882.47
2023-04-15T18:27:18.575Z,99891.19
2023-04-15T18:30:21.484Z,99897.38
2023-04-15T18:33:23.993Z,99899.03
2023-04-15T18:36:26.718Z,99903.38
2023-04-15T18:39:29.343Z,99917.37
2023-04-15T18:42:31.955Z,99919.34
2023-04-15T18:45:34.568Z,99925.63
2023-04-15T18:48:37.229Z,99935.19
2023-04-15T18:51:39.712Z,99940.31
2023-04-15T18:54:42.359Z,99947.41
2023-04-15T18:57:46.599Z,99949.19
2023-04-15T19:00:51.173Z,99951.84
2023-04-15T19:03:53.550Z,99953.75
2023-04-15T19:06:56.491Z,99950.41
2023-04-15T19:09:59.029Z,99961.06
2023-04-15T19:13:03.229Z,99959.72
2023-04-15T19:16:06.617Z,99972.03
2023-04-15T19:19:09.409Z,99975.72
2023-04-15T19:22:12.391Z,99984.69
2023-04-15T19:25:15.397Z,99989.16
2023-04-15T19:28:17.736Z,99993.63
2023-04-15T19:31:20.683Z,99990.22
2023-04-15T19:34:23.231Z,99985.22
2023-04-15T19:37:25.965Z,99988.75
2023-04-15T19:40:28.338Z,99997.28
2023-04-15T19:43:32.013Z,100004.06
2023-04-15T19:46:34.593Z,100003.94
2023-04-15T19:49:37.748Z,100008.94
2023-04-15T19:52:40.077Z,100013.13
2023-04-15T19:55:43.439Z,100007.00
2023-04-15T19:58:50.874Z,100001.88
2023-04-15T20:01:53.536Z,100013.19
2023-04-15T20:04:56.546Z,100019.16
2023-04-15T20:07:59.960Z,100016.63
2023-04-15T20:11:02.625Z,100025.31
2023-04-15T20:14:05.004Z,100031.31
2023-04-15T20:17:07.652Z,100028.72
2023-04-15T20:20:10.407Z,100029.56
2023-04-15T20:23:13.142Z,100034.69
2023-04-15T20:26:15.541Z,100024.91
2023-04-15T20:29:18.145Z,100029.09
2023-04-15T20:32:21.091Z,100029.16
2023-04-15T20:35:25.036Z,100034.34
2023-04-15T20:38:27.318Z,100032.56
2023-04-15T20:41:30.108Z,100035.19
2023-04-15T20:44:34.599Z,100041.25
2023-04-15T20:47:37.371Z,100037.66
2023-04-15T20:50:39.723Z,100049.72
2023-04-15T20:53:42.554Z,100053.13
2023-04-15T20:56:45.019Z,100049.63
2023-04-15T20:59:47.665Z,100048.94
2023-04-15T21:02:50.191Z,100061.03
2023-04-15T21:05:52.856Z,100058.47
2023-04-15T21:08:55.370Z,100065.34
2023-04-15T21:12:01.750Z,100072.31
2023-04-15T21:15:04.711Z,100072.13
2023-04-15T21:18:07.442Z,100081.81
2023-04-15T21:21:09.748Z,100077.66
2023-04-15T21:24:12.569Z,100079.66
2023-04-15T21:27:14.954Z,100084.97
2023-04-15T21:30:17.631Z,100082.38
2023-04-15T21:33:20.404Z,100088.63
2023-04-15T21:36:22.939Z,100094.03
2023-04-15T21:39:30.188Z,100104.59
2023-04-15T21:42:32.814Z,100106.56
2023-04-15T21:45:35.996Z,100109.34
2023-04-15T21:48:38.910Z,100108.53
2023-04-15T21:51:41.397Z,100110.38
2023-04-15T21:54:44.006Z,100110.44
2023-04-15T21:57:46.360Z,100110.38
2023-04-15T22:00:49.216Z,100113.84
2023-04-15T22:03:52.301Z,100110.50
2023-04-15T22:06:55.870Z,100113.97
2023-04-15T22:09:58.549Z,100114.16
2023-04-15T22:13:03.014Z,100122.00
2023-04-15T22:16:05.910Z,100119.44
2023-04-15T22:19:08.982Z,100126.44
2023-04-15T22:22:11.785Z,100125.59
2023-04-15T22:25:14.560Z,100128.97
2023-04-15T22:28:17.306Z,100130.62
2023-04-15T22:31:19.737Z,100131.34
2023-04-15T22:34:22.432Z,100135.59
2023-04-15T22:37:24.788Z,100133.00
2023-04-15T22:40:28.394Z,100136.50
2023-04-15T22:43:31.111Z,100128.63
2023-04-15T22:46:33.841Z,100134.53
2023-04-15T22:49:36.641Z,100139.66
2023-04-15T22:52:39.731Z,100131.97
2023-04-15T22:55:48.549Z,100135.16
2023-04-15T22:58:51.566Z,100141.87
2023-04-15T23:01:54.187Z,100142.56
2023-04-15T23:04:57.062Z,100148.59
2023-04-15T23:07:59.433Z,100139.97
2023-04-15T23:11:02.106Z,100147.00
2023-04-15T23:14:04.564Z,100142.06
2023-04-15T23:17:07.253Z,100144.78
2023-04-15T23:20:09.913Z,100145.00
2023-04-15T23:23:12.607Z,100143.44
2023-04-15T23:26:14.915Z,100141.72
2023-04-15T23:29:17.476Z,100136.59
2023-04-15T23:32:19.974Z,100137.41
2023-04-15T23:35:22.675Z,100140.00
2023-04-15T23:38:25.044Z,100147.06
2023-04-15T23:41:27.757Z,100146.94
2023-04-15T23:44:30.140Z,100153.78
2023-04-15T23:47:32.783Z,100155.47
2023-04-15T23:50:35.220Z,100160.72
2023-04-15T23:53:37.960Z,100163.28
2023-04-15T23:56:40.349Z,100162.59
2023-04-15T23:59:42.975Z,100164.50
